MMCL/CUL METAR and TAF weather

Enter ICAO airport designator
Station Type Date Time Source
MMCL METAR 2024/07/15 19:47 UTC NOAA

MMCL 151947Z 29009KT 10SM FEW020 38/19 A2988 RMK 8/100 HZY


Station Type Date Time Source
MMCL Decoded METAR 2024/07/15 19:47 UTC NOAA

Culiacan, Sin., Mexico (MMCL) 24-49N 107-24W
Jul 15, 2024 - 03:47 PM EDT / 2024.07.15 1947 UTC
Wind: from the WNW (290 degrees) at 10 MPH (9 KT):0
Visibility: 10 mile(s):0
Sky conditions: mostly clear
Temperature: 100 F (38 C)
Heat index: 104.2 F (40.1 C):1
Dew Point: 66 F (19 C)
Relative Humidity: 33%
Pressure (altimeter): 29.88 in. Hg (1011 hPa)
ob: MMCL 151947Z 29009KT 10SM FEW020 38/19 A2988 RMK 8/100 HZY
cycle: 20

Station Type Date Time Source
MMCL TAF 2024/07/15 18:07 UTC NOAA